Time;durP1;ratioP1;P1;durP2;ratioP2;P2;SDS_P1;SDS_P2;PMS_P1;PMS_P2;Temp;Humidity;BMP_temperature;BMP_pressure;BME280_temperature;BME280_humidity;BME280_pressure;Samples;Min_cycle;Max_cycle;Signal;HPM_P1;HPM_P2
2022/07/20 00:00:13;;;;;;;11.95;6.22;;;;;;;18.94;60.35;95325.34;4974276;28;20228;-77
2022/07/20 00:02:40;;;;;;;17.00;6.18;;;;;;;18.98;60.18;95313.25;4967781;28;20205;-78
2022/07/20 00:05:07;;;;;;;17.75;6.43;;;;;;;19.03;59.60;95308.00;4960222;28;20216;-79
2022/07/20 00:07:34;;;;;;;12.25;5.80;;;;;;;19.01;59.75;95300.38;4973931;28;20231;-80
2022/07/20 00:12:47;;;;;;;10.55;5.60;;;;;;;19.09;59.76;95310.44;4972614;28;20287;-80
2022/07/20 00:15:14;;;;;;;13.48;5.97;;;;;;;19.08;59.72;95308.03;4958451;28;20256;-84
2022/07/20 00:17:41;;;;;;;12.82;5.30;;;;;;;19.09;59.37;95312.25;4961227;28;20275;-82
2022/07/20 00:20:09;;;;;;;14.00;5.30;;;;;;;19.00;58.50;95301.41;4961502;28;20243;-81
2022/07/20 00:22:36;;;;;;;11.07;5.80;;;;;;;18.86;59.34;95308.16;4962680;28;20201;-82
2022/07/20 00:25:04;;;;;;;11.20;6.03;;;;;;;18.92;58.49;95315.06;4967073;28;20214;-83
2022/07/20 00:27:32;;;;;;;23.10;6.30;;;;;;;18.85;59.21;95300.50;4973078;28;20279;-83
2022/07/20 00:30:01;;;;;;;10.55;4.90;;;;;;;18.91;58.83;95302.13;4962597;28;20224;-80
2022/07/20 00:32:28;;;;;;;12.63;4.97;;;;;;;18.91;58.37;95307.38;4965768;28;20205;-78
2022/07/20 00:34:55;;;;;;;11.23;4.75;;;;;;;18.88;58.66;95300.78;4973387;28;20216;-78
2022/07/20 00:37:22;;;;;;;10.35;4.32;;;;;;;18.91;59.34;95304.75;4973178;28;20287;-78
2022/07/20 00:39:49;;;;;;;11.38;4.90;;;;;;;18.88;59.26;95294.72;4974014;28;20263;-77
2022/07/20 00:42:16;;;;;;;13.77;5.22;;;;;;;18.82;59.49;95303.63;4966099;28;20689;-77
2022/07/20 00:44:42;;;;;;;14.30;5.55;;;;;;;18.84;59.16;95312.91;4960151;28;20212;-78
2022/07/20 00:47:10;;;;;;;10.05;4.45;;;;;;;18.87;58.74;95307.13;4961115;28;20219;-78
2022/07/20 00:49:37;;;;;;;10.23;4.38;;;;;;;18.84;58.34;95309.47;4960916;28;20213;-77
2022/07/20 00:52:05;;;;;;;9.98;4.60;;;;;;;18.82;58.37;95303.63;4953834;28;20216;-77
2022/07/20 00:54:32;;;;;;;10.38;4.38;;;;;;;18.83;58.52;95299.97;4954313;28;20235;-77
2022/07/20 00:57:00;;;;;;;13.63;4.85;;;;;;;18.79;58.92;95306.81;4954626;28;20213;-78
2022/07/20 00:59:27;;;;;;;17.40;4.95;;;;;;;18.84;59.13;95306.84;4959921;28;20231;-77
2022/07/20 01:01:54;;;;;;;13.32;4.90;;;;;;;18.81;59.00;95304.69;4954418;28;20212;-76
2022/07/20 01:04:22;;;;;;;10.45;4.72;;;;;;;18.77;59.32;95299.13;4966952;28;20326;-77
2022/07/20 01:06:50;;;;;;;11.75;5.03;;;;;;;18.74;59.65;95289.09;4967392;28;20208;-77
2022/07/20 01:09:18;;;;;;;11.82;4.78;;;;;;;18.83;59.49;95303.41;4966676;28;20229;-77
2022/07/20 01:11:45;;;;;;;11.10;4.63;;;;;;;18.84;59.59;95302.38;4953135;28;20300;-77
2022/07/20 01:14:12;;;;;;;9.48;4.47;;;;;;;18.81;58.62;95299.44;4960559;28;20216;-77
2022/07/20 01:16:39;;;;;;;12.40;4.38;;;;;;;18.70;58.51;95301.19;4973159;28;20237;-77
2022/07/20 01:19:07;;;;;;;13.30;4.50;;;;;;;18.59;59.16;95294.25;4973085;28;20213;-77
2022/07/20 01:21:40;;;;;;;11.77;4.70;;;;;;;18.56;59.82;95297.38;4966053;28;20216;-80
2022/07/20 01:24:09;;;;;;;10.10;4.75;;;;;;;18.55;60.39;95299.25;4967291;28;20204;-81
2022/07/20 01:26:36;;;;;;;10.93;4.47;;;;;;;18.47;60.55;95289.13;4959696;28;20212;-80
2022/07/20 01:29:04;;;;;;;9.18;4.47;;;;;;;18.51;60.44;95289.44;4972083;28;20235;-80
2022/07/20 01:31:31;;;;;;;7.55;4.47;;;;;;;18.50;60.38;95299.19;4972403;28;20232;-82
2022/07/20 01:33:58;;;;;;;5.88;4.55;;;;;;;18.46;60.58;95295.47;4966605;28;20239;-79
2022/07/20 01:36:24;;;;;;;9.35;4.32;;;;;;;18.43;60.44;95288.06;4972324;28;20661;-81
2022/07/20 01:38:53;;;;;;;7.90;4.65;;;;;;;18.44;60.29;95294.88;4972646;28;20211;-82
2022/07/20 01:41:20;;;;;;;11.35;4.40;;;;;;;18.43;59.96;95288.06;4954127;28;20233;-80
2022/07/20 01:43:47;;;;;;;12.88;4.97;;;;;;;18.42;60.33;95289.09;4966105;28;20315;-81
2022/07/20 01:46:14;;;;;;;17.25;4.65;;;;;;;18.40;61.01;95295.66;4972356;28;20208;-80
2022/07/20 01:48:41;;;;;;;8.93;4.22;;;;;;;18.36;61.31;95290.09;4966111;28;20228;-80
2022/07/20 01:51:08;;;;;;;7.82;4.30;;;;;;;18.43;61.28;95298.59;4971303;28;20209;-78
2022/07/20 01:53:35;;;;;;;12.35;5.00;;;;;;;18.39;61.09;95294.06;4971733;28;20209;-81
2022/07/20 01:56:04;;;;;;;15.77;5.32;;;;;;;18.38;61.41;95300.38;4959332;28;20205;-81
2022/07/20 01:58:31;;;;;;;12.30;5.20;;;;;;;18.35;61.56;95299.06;4959235;28;20216;-80
2022/07/20 02:00:57;;;;;;;9.60;5.00;;;;;;;18.31;61.66;95300.59;4971510;28;20219;-80
2022/07/20 02:03:24;;;;;;;18.60;4.77;;;;;;;18.30;61.48;95298.97;4971581;28;20669;-76
2022/07/20 02:05:51;;;;;;;8.18;4.63;;;;;;;18.31;61.56;95305.84;4971612;28;20213;-76
2022/07/20 02:08:18;;;;;;;9.65;4.40;;;;;;;18.24;61.42;95307.88;4971435;28;20262;-76
2022/07/20 02:10:44;;;;;;;12.57;4.30;;;;;;;18.18;61.52;95305.47;4971814;28;20197;-76
2022/07/20 02:13:13;;;;;;;8.57;4.30;;;;;;;18.08;62.02;95308.78;4971410;28;20276;-77
2022/07/20 02:18:24;;;;;;;10.70;4.77;;;;;;;18.08;62.64;95314.84;4966038;28;20200;-77
2022/07/20 02:20:50;;;;;;;10.20;4.40;;;;;;;18.01;62.98;95316.06;4970445;28;20216;-76
2022/07/20 02:23:17;;;;;;;13.73;4.10;;;;;;;17.97;63.26;95307.09;4965248;28;20626;-78
2022/07/20 02:25:44;;;;;;;12.37;4.03;;;;;;;17.93;62.06;95308.63;4965944;28;20209;-80
2022/07/20 02:28:12;;;;;;;11.27;4.20;;;;;;;17.90;61.54;95317.78;4965445;28;20228;-82
2022/07/20 02:30:40;;;;;;;15.97;4.60;;;;;;;17.87;61.45;95315.66;4971387;28;20208;-83
2022/07/20 02:33:07;;;;;;;10.97;3.93;;;;;;;17.82;62.05;95304.28;4971837;28;20212;-82
2022/07/20 02:35:34;;;;;;;15.20;4.20;;;;;;;17.80;62.74;95307.19;4971678;28;20235;-82
2022/07/20 02:38:01;;;;;;;14.00;4.87;;;;;;;17.72;63.19;95310.22;4959336;28;20205;-81
2022/07/20 02:40:28;;;;;;;11.50;4.80;;;;;;;17.58;64.25;95307.19;4971892;28;20212;-81
2022/07/20 02:42:55;;;;;;;12.30;5.00;;;;;;;17.57;64.74;95315.31;4952673;28;20249;-81
2022/07/20 02:45:23;;;;;;;15.23;4.53;;;;;;;17.56;65.35;95317.16;4971161;28;20271;-81
2022/07/20 02:47:50;;;;;;;10.87;4.67;;;;;;;17.53;64.59;95303.66;4965371;28;20205;-81
2022/07/20 02:50:17;;;;;;;18.37;4.50;;;;;;;17.53;63.58;95317.59;4971457;28;20204;-80
2022/07/20 02:52:44;;;;;;;15.60;5.00;;;;;;;17.53;63.81;95322.88;4964731;28;20627;-80
2022/07/20 02:55:12;;;;;;;9.97;4.30;;;;;;;17.47;62.98;95326.47;4965012;28;20645;-77
2022/07/20 02:57:42;;;;;;;11.83;4.70;;;;;;;17.51;63.72;95324.16;4971082;28;20204;-77
2022/07/20 03:00:11;;;;;;;6.20;3.70;;;;;;;17.57;63.10;95320.59;4958419;28;20209;-77
2022/07/20 03:02:39;;;;;;;8.57;3.60;;;;;;;17.61;62.34;95326.91;4951948;28;20721;-79
2022/07/20 03:05:06;;;;;;;11.67;3.70;;;;;;;17.55;62.32;95326.06;4958543;28;20687;-80
2022/07/20 03:07:34;;;;;;;12.13;3.90;;;;;;;17.57;61.98;95329.25;4965476;28;20675;-81
2022/07/20 03:10:01;;;;;;;9.50;3.73;;;;;;;17.57;61.33;95331.09;4964460;28;20251;-79
2022/07/20 03:12:27;;;;;;;12.87;3.60;;;;;;;17.61;61.63;95329.56;4964253;28;20227;-77
2022/07/20 03:14:54;;;;;;;12.83;3.93;;;;;;;17.58;62.65;95327.41;4954263;28;20241;-76
2022/07/20 03:17:21;;;;;;;12.43;4.53;;;;;;;17.60;62.96;95338.50;4963880;28;20209;-77
2022/07/20 03:19:50;;;;;;;15.00;4.20;;;;;;;17.64;62.56;95330.91;4970672;28;20695;-77
2022/07/20 03:22:16;;;;;;;12.83;4.20;;;;;;;17.62;62.77;95335.59;4965230;28;20577;-78
2022/07/20 03:24:43;;;;;;;12.63;4.43;;;;;;;17.60;62.76;95329.81;4957324;28;20223;-78
2022/07/20 03:27:10;;;;;;;9.23;4.33;;;;;;;17.49;62.36;95334.91;4964243;28;20668;-78
2022/07/20 03:29:37;;;;;;;7.70;3.83;;;;;;;17.64;62.23;95344.84;4970768;28;20611;-77
2022/07/20 03:32:04;;;;;;;10.30;4.27;;;;;;;17.56;62.27;95345.28;4973923;28;20209;-78
2022/07/20 03:34:32;;;;;;;10.97;4.30;;;;;;;17.62;63.11;95349.56;4973771;28;20205;-78
2022/07/20 03:37:00;;;;;;;11.20;4.87;;;;;;;17.60;62.67;95349.00;4974165;28;20208;-78
2022/07/20 03:39:27;;;;;;;5.63;3.93;;;;;;;17.53;62.89;95341.28;4973357;28;20212;-78
2022/07/20 03:41:54;;;;;;;12.40;4.30;;;;;;;17.43;63.42;95345.59;4973951;28;20200;-78
2022/07/20 03:44:21;;;;;;;14.53;4.70;;;;;;;17.39;64.05;95349.75;4974033;28;20208;-78
2022/07/20 03:46:47;;;;;;;12.47;4.67;;;;;;;17.43;62.94;95350.88;4974299;28;20242;-78
2022/07/20 03:49:14;;;;;;;9.53;4.73;;;;;;;17.41;63.52;95356.34;4973417;28;20225;-78
2022/07/20 03:51:41;;;;;;;13.97;4.73;;;;;;;17.31;64.19;95350.97;4973686;28;20209;-78
2022/07/20 03:54:09;;;;;;;7.87;4.17;;;;;;;17.30;65.90;95356.44;4973858;28;20651;-78
2022/07/20 03:56:39;;;;;;;12.53;4.47;;;;;;;17.35;65.41;95357.31;4967325;28;20212;-78
2022/07/20 03:59:08;;;;;;;10.87;4.80;;;;;;;17.38;64.79;95351.56;4973547;28;20232;-77
2022/07/20 04:01:34;;;;;;;9.67;4.50;;;;;;;17.38;64.86;95353.41;4967286;28;20631;-78
2022/07/20 04:04:01;;;;;;;11.10;4.83;;;;;;;17.36;64.89;95351.03;4972848;28;20231;-78
2022/07/20 04:06:28;;;;;;;15.43;4.50;;;;;;;17.28;63.61;95353.28;4973239;28;20208;-78
2022/07/20 04:08:55;;;;;;;11.17;4.63;;;;;;;17.37;63.25;95351.84;4955572;28;20229;-77
2022/07/20 04:11:24;;;;;;;10.97;4.23;;;;;;;17.33;62.53;95348.88;4964794;28;20239;-77
2022/07/20 04:13:52;;;;;;;9.97;3.97;;;;;;;17.33;62.60;95351.50;4973193;28;20683;-77
2022/07/20 04:16:19;;;;;;;9.17;4.30;;;;;;;17.33;62.75;95356.78;4955823;28;20237;-78
2022/07/20 04:18:46;;;;;;;7.67;3.73;;;;;;;17.38;62.53;95358.66;4960642;28;20213;-79
2022/07/20 04:21:14;;;;;;;7.17;4.30;;;;;;;17.35;62.76;95359.13;4958361;28;20204;-78
2022/07/20 04:23:41;;;;;;;9.97;4.07;;;;;;;17.34;63.14;95355.75;4969000;28;20304;-74
2022/07/20 04:26:08;;;;;;;9.97;4.40;;;;;;;17.37;62.65;95357.84;4970962;28;20212;-75
2022/07/20 04:28:36;;;;;;;9.70;4.50;;;;;;;17.33;63.01;95350.72;4972999;28;20659;-76
2022/07/20 04:31:03;;;;;;;7.10;4.30;;;;;;;17.34;62.91;95362.81;4950580;28;20201;-74
2022/07/20 04:33:30;;;;;;;10.30;4.47;;;;;;;17.44;62.86;95366.38;4962664;28;20315;-73
2022/07/20 04:35:57;;;;;;;11.80;4.80;;;;;;;17.55;63.46;95372.59;4954288;28;20534;-73
2022/07/20 04:38:24;;;;;;;12.13;4.50;;;;;;;17.61;63.17;95355.03;4953155;28;20209;-73
2022/07/20 04:40:51;;;;;;;8.93;4.60;;;;;;;17.73;62.51;95358.34;4969756;28;20201;-74
2022/07/20 04:43:18;;;;;;;8.90;4.30;;;;;;;17.83;62.80;95369.00;4971513;28;20263;-74
2022/07/20 04:45:46;;;;;;;8.67;3.93;;;;;;;17.89;62.38;95371.44;4965690;28;20219;-74
2022/07/20 04:48:13;;;;;;;10.70;4.50;;;;;;;17.96;61.66;95374.69;4971677;28;20204;-74
2022/07/20 04:50:40;;;;;;;6.67;3.97;;;;;;;17.90;61.09;95380.13;4971716;28;20249;-75
2022/07/20 04:53:07;;;;;;;5.23;3.80;;;;;;;17.88;61.21;95377.75;4955583;28;20201;-73
2022/07/20 04:55:33;;;;;;;8.80;3.83;;;;;;;17.93;61.04;95375.19;4969009;28;20648;-73
2022/07/20 04:58:00;;;;;;;9.90;3.53;;;;;;;17.96;60.79;95382.56;4971840;28;20707;-75
2022/07/20 05:00:27;;;;;;;6.27;3.70;;;;;;;18.08;61.38;95382.44;4972660;28;20586;-74
2022/07/20 05:02:55;;;;;;;10.10;3.77;;;;;;;18.09;61.31;95384.03;4962588;28;20210;-74
2022/07/20 05:05:22;;;;;;;8.10;3.80;;;;;;;18.10;60.83;95378.53;4952421;29;20633;-74
2022/07/20 05:07:48;;;;;;;8.83;3.97;;;;;;;18.02;60.33;95381.59;4955058;28;20205;-74
2022/07/20 05:10:15;;;;;;;5.37;3.73;;;;;;;17.97;60.62;95378.13;4972081;28;20650;-75
2022/07/20 05:12:42;;;;;;;7.90;4.00;;;;;;;17.90;60.75;95380.13;4972119;28;20201;-74
2022/07/20 05:15:10;;;;;;;7.00;4.00;;;;;;;17.98;61.04;95393.63;4963311;28;20641;-74
2022/07/20 05:17:37;;;;;;;8.63;4.07;;;;;;;18.10;60.83;95383.00;4952367;28;20586;-75
2022/07/20 05:20:07;;;;;;;6.33;3.80;;;;;;;18.16;60.74;95395.16;4952767;28;20216;-73
2022/07/20 05:22:33;;;;;;;9.05;3.80;;;;;;;18.24;60.36;95394.72;4952381;28;20224;-74
2022/07/20 05:25:00;;;;;;;8.40;3.67;;;;;;;18.29;60.52;95386.09;4952579;28;20201;-74
2022/07/20 05:27:27;;;;;;;6.97;4.10;;;;;;;18.36;60.80;95392.75;4952533;28;20209;-74
2022/07/20 05:29:54;;;;;;;8.97;4.47;;;;;;;18.46;60.53;95382.34;4952440;28;20609;-76
2022/07/20 05:32:21;;;;;;;11.45;3.90;;;;;;;18.55;60.05;95396.69;4966494;28;20314;-79
2022/07/20 05:34:48;;;;;;;7.50;3.80;;;;;;;18.54;59.92;95383.75;4968289;28;20204;-76
2022/07/20 05:37:16;;;;;;;12.45;4.38;;;;;;;18.54;59.97;95387.16;4963018;28;20644;-76
2022/07/20 05:39:43;;;;;;;7.83;4.20;;;;;;;18.52;60.25;95385.84;4966705;28;20205;-74
2022/07/20 05:42:09;;;;;;;10.13;4.45;;;;;;;18.55;60.49;95385.34;4959844;28;20201;-74
2022/07/20 05:44:36;;;;;;;5.53;3.90;;;;;;;18.59;60.19;95378.50;4963944;28;20204;-74
2022/07/20 05:47:04;;;;;;;6.18;4.00;;;;;;;18.64;59.67;95387.25;4964421;28;20205;-75
2022/07/20 05:49:30;;;;;;;10.82;4.10;;;;;;;18.70;59.94;95388.88;4970143;28;20323;-75
2022/07/20 05:51:57;;;;;;;9.95;4.15;;;;;;;18.81;59.73;95391.63;4965393;28;20228;-74
2022/07/20 05:54:26;;;;;;;7.47;3.85;;;;;;;18.87;59.23;95388.78;4970507;28;20841;-75
2022/07/20 05:56:52;;;;;;;5.97;3.90;;;;;;;18.98;59.06;95387.81;4971456;28;20213;-75
2022/07/20 05:59:19;;;;;;;10.18;4.18;;;;;;;19.07;59.03;95394.22;4972208;28;20205;-75
2022/07/20 06:01:46;;;;;;;5.57;4.00;;;;;;;19.14;58.42;95392.16;4955188;28;20267;-75
2022/07/20 06:04:14;;;;;;;4.82;3.75;;;;;;;19.13;57.89;95387.91;4965831;28;20212;-75
2022/07/20 06:06:40;;;;;;;6.97;4.20;;;;;;;19.11;58.03;95389.22;4972394;28;20228;-75
2022/07/20 06:09:08;;;;;;;10.93;4.50;;;;;;;19.11;57.85;95392.66;4965730;28;20205;-75
2022/07/20 06:11:36;;;;;;;10.43;4.00;;;;;;;19.23;57.62;95390.63;4972481;28;20763;-75
2022/07/20 06:14:03;;;;;;;7.65;4.53;;;;;;;19.27;57.57;95391.72;4954358;28;20228;-75
2022/07/20 06:16:30;;;;;;;10.85;4.00;;;;;;;19.39;57.65;95396.06;4952969;28;20787;-75
2022/07/20 06:18:57;;;;;;;8.20;4.25;;;;;;;19.37;57.40;95400.72;4953149;28;20307;-75
2022/07/20 06:21:24;;;;;;;6.20;4.07;;;;;;;19.44;57.46;95403.97;4952692;28;20201;-75
2022/07/20 06:23:51;;;;;;;8.55;4.38;;;;;;;19.47;57.54;95404.28;4953142;28;20209;-76
2022/07/20 06:26:18;;;;;;;11.25;4.15;;;;;;;19.54;57.84;95404.03;4953102;28;20691;-75
2022/07/20 06:28:46;;;;;;;7.63;4.13;;;;;;;19.64;57.92;95396.19;4952859;28;20205;-75
2022/07/20 06:31:13;;;;;;;6.63;4.30;;;;;;;19.74;57.79;95397.03;4952576;28;20229;-75
2022/07/20 06:33:40;;;;;;;13.32;4.72;;;;;;;19.83;57.42;95394.69;4952639;28;20201;-75
2022/07/20 06:36:07;;;;;;;7.30;4.40;;;;;;;19.89;57.46;95390.22;4952432;28;20705;-74
2022/07/20 06:38:34;;;;;;;8.23;4.40;;;;;;;19.98;56.58;95386.06;4952605;28;20244;-74
2022/07/20 06:41:02;;;;;;;10.50;4.45;;;;;;;20.08;55.88;95386.09;4952264;28;20216;-74
2022/07/20 06:43:29;;;;;;;9.75;4.50;;;;;;;20.07;56.16;95389.78;4965797;28;20679;-74
2022/07/20 06:45:57;;;;;;;13.75;4.57;;;;;;;20.05;55.96;95381.34;4958974;28;20213;-75
2022/07/20 06:48:24;;;;;;;8.77;4.40;;;;;;;20.16;55.80;95388.25;4958221;28;20672;-78
2022/07/20 06:50:50;;;;;;;12.13;4.55;;;;;;;20.26;55.80;95388.28;4971591;28;20239;-78
2022/07/20 06:53:17;;;;;;;10.80;4.82;;;;;;;20.31;55.68;95389.13;4971551;28;20208;-79
2022/07/20 06:55:45;;;;;;;10.43;4.50;;;;;;;20.38;55.63;95384.38;4971552;28;20676;-79
2022/07/20 06:58:12;;;;;;;9.70;4.13;;;;;;;20.44;54.97;95387.81;4948680;28;20209;-77
2022/07/20 07:00:39;;;;;;;10.45;4.30;;;;;;;20.52;55.23;95384.66;4950729;28;20241;-75
2022/07/20 07:03:07;;;;;;;9.52;4.43;;;;;;;20.64;54.94;95374.63;4957259;28;20759;-75
2022/07/20 07:05:34;;;;;;;15.90;4.60;;;;;;;20.76;53.96;95369.09;4958476;28;20798;-75
2022/07/20 07:08:01;;;;;;;9.52;4.78;;;;;;;20.84;53.57;95373.84;4959972;28;20208;-74
2022/07/20 07:10:28;;;;;;;15.55;4.55;;;;;;;20.91;53.58;95375.19;4956927;28;20738;-75
2022/07/20 07:12:55;;;;;;;14.93;4.40;;;;;;;21.03;53.39;95366.19;4960657;28;20206;-74
2022/07/20 07:15:22;;;;;;;12.05;4.60;;;;;;;21.19;53.03;95368.59;4963168;28;20575;-74
2022/07/20 07:17:48;;;;;;;9.70;4.22;;;;;;;21.29;52.43;95367.78;4963824;28;20208;-74
2022/07/20 07:20:17;;;;;;;13.23;4.63;;;;;;;21.34;52.86;95367.78;4957674;28;20899;-75
2022/07/20 07:22:44;;;;;;;11.30;4.40;;;;;;;21.46;52.00;95370.94;4963677;28;20584;-75
2022/07/20 07:25:10;;;;;;;11.02;5.28;;;;;;;21.57;51.39;95372.50;4958290;28;20476;-77
2022/07/20 07:27:37;;;;;;;13.85;4.55;;;;;;;21.62;51.26;95369.03;4964071;28;20216;-78
2022/07/20 07:30:05;;;;;;;16.55;4.18;;;;;;;21.70;51.86;95369.28;4956448;28;20240;-76
2022/07/20 07:32:32;;;;;;;12.70;4.43;;;;;;;21.76;51.44;95364.78;4957614;28;20212;-77
2022/07/20 07:34:59;;;;;;;9.68;4.20;;;;;;;22.03;50.74;95370.50;4962366;28;20216;-76
2022/07/20 07:37:27;;;;;;;9.82;3.83;;;;;;;22.35;52.14;95365.59;4958981;28;20205;-76
2022/07/20 07:39:54;;;;;;;7.57;4.60;;;;;;;22.63;51.07;95370.19;4959227;28;20299;-76
2022/07/20 07:42:22;;;;;;;11.30;4.20;;;;;;;22.82;51.03;95364.25;4957763;28;20217;-76
2022/07/20 07:44:49;;;;;;;10.10;4.32;;;;;;;22.89;49.04;95364.72;4963616;28;20232;-76
2022/07/20 07:47:16;;;;;;;10.55;4.18;;;;;;;22.92;48.30;95364.94;4959482;28;20211;-77
2022/07/20 07:49:43;;;;;;;6.68;4.25;;;;;;;23.02;49.48;95356.94;4956660;28;20681;-76
2022/07/20 07:52:09;;;;;;;12.07;4.70;;;;;;;23.11;47.05;95349.16;4962063;28;20221;-76
2022/07/20 07:54:38;;;;;;;8.38;4.07;;;;;;;23.17;46.53;95367.38;4957190;28;20649;-76
2022/07/20 07:57:05;;;;;;;7.68;4.35;;;;;;;23.27;47.00;95360.41;4959167;28;20583;-76
2022/07/20 07:59:31;;;;;;;11.05;4.75;;;;;;;23.25;46.27;95359.91;4955180;28;20213;-76
2022/07/20 08:01:58;;;;;;;8.40;4.00;;;;;;;23.28;46.13;95356.69;4959487;28;20204;-76
2022/07/20 08:04:25;;;;;;;7.72;4.65;;;;;;;23.34;45.83;95364.34;4959271;28;20588;-76
2022/07/20 08:06:52;;;;;;;18.90;4.70;;;;;;;23.42;45.41;95361.09;4957465;28;20283;-76
2022/07/20 08:09:19;;;;;;;9.70;4.50;;;;;;;23.49;45.53;95352.81;4956982;28;20588;-77
2022/07/20 08:11:47;;;;;;;11.70;4.35;;;;;;;23.62;45.48;95352.13;4949427;28;20222;-76
2022/07/20 08:14:14;;;;;;;7.43;4.10;;;;;;;23.87;45.84;95351.03;4960963;28;20215;-76
2022/07/20 08:16:42;;;;;;;12.38;4.30;;;;;;;24.13;45.77;95347.81;4954346;28;20257;-75
2022/07/20 08:19:08;;;;;;;10.23;4.03;;;;;;;24.32;44.56;95341.75;4959696;28;20202;-75
2022/07/20 08:21:35;;;;;;;9.98;4.10;;;;;;;24.42;44.13;95350.34;4958163;28;20876;-75
2022/07/20 08:24:03;;;;;;;8.75;3.83;;;;;;;24.53;43.52;95343.81;4959099;28;20211;-75
2022/07/20 08:26:30;;;;;;;7.68;3.65;;;;;;;24.67;42.90;95344.69;4955703;28;20208;-76
2022/07/20 08:28:58;;;;;;;10.10;4.38;;;;;;;24.72;42.44;95341.94;4959892;28;20200;-76
2022/07/20 08:31:25;;;;;;;10.82;4.43;;;;;;;24.73;41.57;95340.09;4957176;28;20287;-76
2022/07/20 08:33:52;;;;;;;7.50;3.70;;;;;;;24.74;39.97;95337.13;4957008;28;20197;-76
2022/07/20 08:36:19;;;;;;;10.23;3.88;;;;;;;24.63;40.43;95335.69;4960857;28;20668;-76
2022/07/20 08:38:46;;;;;;;8.95;3.92;;;;;;;24.67;40.23;95335.91;4958723;28;20241;-76
2022/07/20 08:41:14;;;;;;;10.02;3.67;;;;;;;24.65;40.63;95330.88;4956503;28;20206;-76
2022/07/20 08:43:41;;;;;;;12.90;3.92;;;;;;;24.80;41.31;95336.00;4957072;28;20210;-75
2022/07/20 08:46:09;;;;;;;5.65;3.15;;;;;;;25.00;39.44;95342.84;4956902;28;20205;-76
2022/07/20 08:48:36;;;;;;;8.80;2.78;;;;;;;24.98;37.78;95336.25;4958645;28;20216;-84
2022/07/20 08:51:03;;;;;;;4.78;2.90;;;;;;;25.05;37.13;95323.38;4956879;28;20233;-77
2022/07/20 08:53:30;;;;;;;6.20;3.25;;;;;;;25.09;37.39;95327.00;4960730;28;20208;-77
2022/07/20 08:55:59;;;;;;;7.10;2.90;;;;;;;25.30;38.52;95328.25;4957425;28;20200;-77
2022/07/20 08:58:26;;;;;;;7.43;2.90;;;;;;;25.42;38.15;95325.09;4954152;28;20715;-77
2022/07/20 09:00:53;;;;;;;7.55;2.95;;;;;;;25.53;38.06;95334.50;4958553;28;20216;-77
2022/07/20 09:03:21;;;;;;;3.50;2.65;;;;;;;25.63;38.44;95329.78;4959198;28;20216;-77
2022/07/20 09:06:02;;;;;;;5.80;2.55;;;;;;;25.74;37.52;95323.16;4960129;28;20212;-77
2022/07/20 09:08:31;;;;;;;6.28;2.40;;;;;;;25.77;37.43;95324.47;4961893;28;20208;-77
2022/07/20 09:11:01;;;;;;;3.55;2.80;;;;;;;25.89;38.27;95328.19;4959291;28;20305;-77
2022/07/20 09:13:41;;;;;;;6.50;2.80;;;;;;;26.00;37.79;95325.34;4953533;28;20249;-77
2022/07/20 09:16:09;;;;;;;4.78;2.78;;;;;;;26.15;37.72;95322.34;4958500;28;20233;-77
2022/07/20 09:18:37;;;;;;;5.63;2.67;;;;;;;26.25;36.74;95316.81;4958798;28;20598;-76
2022/07/20 09:21:07;;;;;;;8.13;2.90;;;;;;;26.34;37.06;95325.69;4960403;28;20212;-76
2022/07/20 09:23:46;;;;;;;4.72;2.92;;;;;;;26.50;36.47;95316.25;4961393;28;20876;-76
2022/07/20 09:26:16;;;;;;;7.72;2.67;;;;;;;26.48;35.16;95313.91;4959571;28;20581;-76
2022/07/20 09:28:46;;;;;;;7.13;2.67;;;;;;;26.52;36.36;95313.31;4955492;28;20575;-76
2022/07/20 09:31:14;;;;;;;5.18;2.72;;;;;;;26.78;36.60;95316.97;4959967;28;20232;-76
2022/07/20 09:34:17;;;;;;;6.43;2.67;;;;;;;26.96;35.44;95318.66;4953097;28;20209;-76
2022/07/20 09:36:48;;;;;;;3.65;2.70;;;;;;;26.95;35.44;95312.56;4957553;28;20205;-76
2022/07/20 09:39:16;;;;;;;7.30;2.65;;;;;;;26.93;35.54;95309.38;4958408;28;20197;-76
2022/07/20 09:41:46;;;;;;;5.05;2.63;;;;;;;26.95;35.07;95301.88;4961287;28;20208;-76
2022/07/20 09:44:22;;;;;;;6.22;2.83;;;;;;;26.99;34.94;95299.38;4961165;28;20281;-76
2022/07/20 09:46:51;;;;;;;4.00;2.80;;;;;;;27.05;35.66;95298.16;4959020;28;20204;-76
2022/07/20 09:49:21;;;;;;;9.60;3.10;;;;;;;27.16;34.89;95296.78;4958738;28;20637;-76
2022/07/20 09:52:03;;;;;;;6.70;3.08;;;;;;;27.23;35.61;95297.16;4955741;28;20255;-76
2022/07/20 09:54:30;;;;;;;8.43;2.92;;;;;;;27.22;35.77;95284.09;4957235;28;20204;-77
2022/07/20 09:56:58;;;;;;;4.95;2.85;;;;;;;27.42;35.01;95296.94;4959787;28;20193;-76
2022/07/20 09:59:35;;;;;;;7.55;3.50;;;;;;;27.57;35.14;95302.69;4957710;28;20703;-77
2022/07/20 10:02:04;;;;;;;6.43;3.13;;;;;;;27.75;34.35;95295.50;4953333;28;20212;-76
2022/07/20 10:04:36;;;;;;;4.22;2.67;;;;;;;27.80;33.84;95300.72;4959996;28;20212;-76
2022/07/20 10:07:03;;;;;;;5.15;2.65;;;;;;;27.92;34.15;95292.09;4957280;28;20764;-76
2022/07/20 10:09:33;;;;;;;6.28;2.60;;;;;;;28.18;34.92;95290.28;4955474;28;20688;-76
2022/07/20 10:12:01;;;;;;;3.35;2.45;;;;;;;28.35;33.05;95286.81;4954722;28;20233;-76
2022/07/20 10:14:29;;;;;;;9.70;2.35;;;;;;;28.39;32.46;95277.88;4959923;28;20204;-76
2022/07/20 10:16:56;;;;;;;4.68;2.92;;;;;;;28.35;33.86;95281.47;4948485;28;20814;-76
2022/07/20 10:19:41;;;;;;;8.82;3.20;;;;;;;28.48;33.76;95289.38;4925975;28;20256;-75
2022/07/20 10:22:10;;;;;;;5.28;2.65;;;;;;;28.57;31.51;95276.75;4942996;28;21336;-75
2022/07/20 10:24:39;;;;;;;5.60;2.63;;;;;;;28.55;32.34;95278.97;4951150;28;20651;-75
2022/07/20 10:27:28;;;;;;;6.45;2.45;;;;;;;28.64;32.76;95269.06;4952390;28;20279;-76
2022/07/20 10:29:58;;;;;;;4.88;2.50;;;;;;;28.79;33.21;95275.03;4955054;28;20193;-76
2022/07/20 10:32:28;;;;;;;3.38;2.50;;;;;;;28.72;32.43;95264.81;4954958;28;20233;-76
2022/07/20 10:34:58;;;;;;;6.95;3.28;;;;;;;28.84;32.95;95259.59;4956801;28;20288;-76
2022/07/20 10:37:45;;;;;;;6.95;3.97;;;;;;;29.06;32.96;95250.56;4955143;28;20207;-74
2022/07/20 10:40:15;;;;;;;8.23;3.20;;;;;;;29.18;32.50;95253.34;4954815;28;20316;-73
2022/07/20 10:42:47;;;;;;;6.75;2.67;;;;;;;29.26;31.92;95241.88;4958953;28;20598;-73
2022/07/20 10:45:41;;;;;;;10.25;2.45;;;;;;;29.43;30.69;95244.47;4964249;28;20205;-73
2022/07/20 10:48:19;;;;;;;5.55;2.67;;;;;;;29.62;30.97;95241.38;4933425;28;20591;-72
2022/07/20 10:50:52;;;;;;;5.45;3.08;;;;;;;29.67;30.17;95241.19;4964703;28;20614;-72
2022/07/20 10:53:35;;;;;;;4.43;3.03;;;;;;;29.67;31.62;95238.50;4957912;28;20202;-75
2022/07/20 10:56:03;;;;;;;6.47;2.88;;;;;;;29.71;30.51;95239.44;4958803;28;20212;-75
2022/07/20 10:58:32;;;;;;;9.63;4.82;;;;;;;29.84;32.33;95229.63;4961308;28;20209;-72
2022/07/20 11:01:01;;;;;;;4.95;2.53;;;;;;;30.01;30.92;95224.94;4962012;28;20205;-77
2022/07/20 11:03:32;;;;;;;7.90;2.70;;;;;;;30.14;29.99;95231.94;4959334;28;20299;-77
2022/07/20 11:06:06;;;;;;;6.38;2.60;;;;;;;30.31;30.86;95222.94;4957857;28;20248;-73
2022/07/20 11:08:37;;;;;;;7.15;2.38;;;;;;;30.40;30.23;95229.06;4958449;28;20220;-70
2022/07/20 11:11:05;;;;;;;4.13;2.50;;;;;;;30.59;30.29;95233.97;4955438;28;20222;-74
2022/07/20 11:13:32;;;;;;;4.60;2.28;;;;;;;30.83;30.22;95234.03;4955534;28;20202;-74
2022/07/20 11:16:01;;;;;;;2.85;2.20;;;;;;;30.94;28.25;95221.75;4957892;28;20252;-74
2022/07/20 11:18:30;;;;;;;5.53;2.35;;;;;;;31.03;29.28;95225.16;4958311;28;20212;-74
2022/07/20 11:21:00;;;;;;;4.13;2.38;;;;;;;31.26;29.10;95231.69;4957173;28;20205;-74
2022/07/20 11:23:40;;;;;;;3.25;2.38;;;;;;;31.33;29.07;95229.22;4957765;28;20243;-74
2022/07/20 11:26:08;;;;;;;5.00;2.50;;;;;;;31.59;28.83;95230.81;4956096;28;20209;-74
2022/07/20 11:28:37;;;;;;;3.63;2.50;;;;;;;31.89;27.19;95226.78;4956811;28;20216;-74
2022/07/20 11:31:07;;;;;;;3.17;2.40;;;;;;;31.96;27.78;95216.22;4957591;28;20233;-74
2022/07/20 11:33:37;;;;;;;4.72;2.22;;;;;;;32.17;27.58;95210.72;4956249;28;20231;-74
2022/07/20 11:36:07;;;;;;;3.70;2.28;;;;;;;32.11;26.63;95202.09;4955753;28;20219;-74
2022/07/20 11:38:37;;;;;;;5.88;2.45;;;;;;;32.19;27.81;95206.56;4956842;28;20630;-75